createdAt,value
2023-04-19T00:00:09.522Z,100.00
2023-04-19T00:02:38.330Z,100.00
2023-04-19T00:05:07.580Z,100.00
2023-04-19T00:07:37.037Z,100.00
2023-04-19T00:10:05.426Z,100.00
2023-04-19T00:12:33.846Z,100.00
2023-04-19T00:15:02.013Z,100.00
2023-04-19T00:17:30.378Z,100.00
2023-04-19T00:19:59.440Z,100.00
2023-04-19T00:22:27.989Z,100.00
2023-04-19T00:24:57.450Z,100.00
2023-04-19T00:27:25.502Z,100.00
2023-04-19T00:29:53.682Z,100.00
2023-04-19T00:32:21.659Z,100.00
2023-04-19T00:34:49.581Z,100.00
2023-04-19T00:37:17.715Z,100.00
2023-04-19T00:39:46.015Z,100.00
2023-04-19T00:42:15.726Z,100.00
2023-04-19T00:44:44.007Z,100.00
2023-04-19T00:47:12.268Z,100.00
2023-04-19T00:49:40.579Z,100.00
2023-04-19T00:52:09.468Z,100.00
2023-04-19T00:54:41.204Z,100.00
2023-04-19T00:57:09.235Z,100.00
2023-04-19T00:59:39.312Z,100.00
2023-04-19T01:02:07.591Z,100.00
2023-04-19T01:04:35.874Z,100.00
2023-04-19T01:07:04.179Z,100.00
2023-04-19T01:09:32.177Z,100.00
2023-04-19T01:12:01.759Z,100.00
2023-04-19T01:14:29.630Z,100.00
2023-04-19T01:16:59.838Z,100.00
2023-04-19T01:19:27.869Z,100.00
2023-04-19T01:21:56.461Z,100.00
2023-04-19T01:24:26.013Z,100.00
2023-04-19T01:26:54.197Z,100.00
2023-04-19T01:29:22.862Z,100.00
2023-04-19T01:31:53.843Z,100.00
2023-04-19T01:34:23.287Z,100.00
2023-04-19T01:36:51.644Z,100.00
2023-04-19T01:39:19.853Z,100.00
2023-04-19T01:41:49.709Z,100.00
2023-04-19T01:44:18.033Z,100.00
2023-04-19T01:46:46.174Z,100.00
2023-04-19T01:49:14.208Z,100.00
2023-04-19T01:51:42.232Z,100.00
2023-04-19T01:54:10.634Z,100.00
2023-04-19T01:56:38.937Z,100.00
2023-04-19T01:59:08.632Z,100.00
2023-04-19T02:01:36.811Z,100.00
2023-04-19T02:04:05.684Z,100.00
2023-04-19T02:06:33.822Z,100.00
2023-04-19T02:09:02.152Z,100.00
2023-04-19T02:11:30.225Z,100.00
2023-04-19T02:13:58.292Z,100.00
2023-04-19T02:16:28.057Z,100.00
2023-04-19T02:18:56.426Z,100.00
2023-04-19T02:21:24.425Z,100.00
2023-04-19T02:23:52.574Z,100.00
2023-04-19T02:26:20.671Z,100.00
2023-04-19T02:28:48.608Z,100.00
2023-04-19T02:31:16.665Z,100.00
2023-04-19T02:33:47.358Z,100.00
2023-04-19T02:36:15.672Z,100.00
2023-04-19T02:38:43.627Z,100.00
2023-04-19T02:41:11.906Z,100.00
2023-04-19T02:43:39.903Z,100.00
2023-04-19T02:46:07.909Z,100.00
2023-04-19T02:48:36.082Z,100.00
2023-04-19T02:51:05.690Z,100.00
2023-04-19T02:53:33.986Z,100.00
2023-04-19T02:56:02.555Z,100.00
2023-04-19T02:58:30.712Z,100.00
2023-04-19T03:00:58.732Z,100.00
2023-04-19T03:03:26.965Z,100.00
2023-04-19T03:05:55.330Z,100.00
2023-04-19T03:08:24.771Z,100.00
2023-04-19T03:10:53.235Z,100.00
2023-04-19T03:13:21.347Z,100.00
2023-04-19T03:15:49.551Z,100.00
2023-04-19T03:18:18.152Z,100.00
2023-04-19T03:20:46.150Z,100.00
2023-04-19T03:23:14.156Z,100.00
2023-04-19T03:25:43.578Z,100.00
2023-04-19T03:28:11.544Z,100.00
2023-04-19T03:30:39.599Z,100.00
2023-04-19T03:33:07.568Z,100.00
2023-04-19T03:35:35.967Z,100.00
2023-04-19T03:38:04.018Z,100.00
2023-04-19T03:40:34.119Z,100.00
2023-04-19T03:43:03.656Z,100.00
2023-04-19T03:45:31.907Z,100.00
2023-04-19T03:48:02.555Z,100.00
2023-04-19T03:50:31.049Z,100.00
2023-04-19T03:52:59.227Z,100.00
2023-04-19T03:55:27.238Z,100.00
2023-04-19T03:57:55.177Z,100.00
2023-04-19T04:00:25.060Z,100.00
2023-04-19T04:02:53.604Z,100.00
2023-04-19T04:05:21.919Z,100.00
2023-04-19T04:07:51.086Z,100.00
2023-04-19T04:10:19.065Z,100.00
2023-04-19T04:12:47.368Z,100.00
2023-04-19T04:15:15.486Z,100.00
2023-04-19T04:17:45.046Z,100.00
2023-04-19T04:20:14.536Z,100.00
2023-04-19T04:22:44.005Z,100.00
2023-04-19T04:25:12.700Z,100.00
2023-04-19T04:27:40.743Z,100.00
2023-04-19T04:30:09.794Z,100.00
2023-04-19T04:32:38.502Z,100.00
2023-04-19T04:35:10.998Z,100.00
2023-04-19T04:37:39.078Z,100.00
2023-04-19T04:40:09.129Z,100.00
2023-04-19T04:42:37.945Z,100.00
2023-04-19T04:45:07.431Z,100.00
2023-04-19T04:47:35.882Z,100.00
2023-04-19T04:50:04.705Z,100.00
2023-04-19T04:52:33.996Z,100.00
2023-04-19T04:55:01.900Z,100.00
2023-04-19T04:57:29.989Z,100.00
2023-04-19T04:59:57.889Z,100.00
2023-04-19T05:02:26.426Z,100.00
2023-04-19T05:04:54.456Z,100.00
2023-04-19T05:07:22.509Z,100.00
2023-04-19T05:09:52.129Z,100.00
2023-04-19T05:12:20.261Z,100.00
2023-04-19T05:14:48.348Z,100.00
2023-04-19T05:17:16.335Z,100.00
2023-04-19T05:19:44.605Z,100.00
2023-04-19T05:22:12.609Z,100.00
2023-04-19T05:24:42.267Z,100.00
2023-04-19T05:27:11.995Z,100.00
2023-04-19T05:29:39.909Z,100.00
2023-04-19T05:32:08.156Z,100.00
2023-04-19T05:34:37.901Z,100.00
2023-04-19T05:37:06.668Z,100.00
2023-04-19T05:39:34.672Z,100.00
2023-04-19T05:42:03.043Z,100.00
2023-04-19T05:44:33.006Z,100.00
2023-04-19T05:47:01.384Z,100.00
2023-04-19T05:49:29.546Z,100.00
2023-04-19T05:51:57.829Z,100.00
2023-04-19T05:54:25.875Z,100.00
2023-04-19T05:56:53.964Z,100.00
2023-04-19T05:59:21.884Z,100.00
2023-04-19T06:01:51.253Z,100.00
2023-04-19T06:04:19.815Z,100.00
2023-04-19T06:06:48.020Z,100.00
2023-04-19T06:09:16.078Z,100.00
2023-04-19T06:11:50.600Z,100.00
2023-04-19T06:14:19.838Z,100.00
2023-04-19T06:16:48.361Z,100.00
2023-04-19T06:19:17.893Z,100.00
2023-04-19T06:21:46.078Z,100.00
2023-04-19T06:24:14.320Z,100.00
2023-04-19T06:26:42.509Z,100.00
2023-04-19T06:29:10.701Z,100.00
2023-04-19T06:31:38.838Z,100.00
2023-04-19T06:34:06.864Z,100.00
2023-04-19T06:36:36.512Z,100.00
2023-04-19T06:39:05.134Z,100.00
2023-04-19T06:41:33.377Z,100.00
2023-04-19T06:44:01.352Z,100.00
2023-04-19T06:46:29.503Z,100.00
2023-04-19T06:48:57.874Z,100.00
2023-04-19T06:51:26.302Z,100.00
2023-04-19T06:53:56.111Z,100.00
2023-04-19T06:56:45.906Z,100.00
2023-04-19T06:59:14.536Z,100.00
2023-04-19T07:01:42.618Z,100.00
2023-04-19T07:04:11.677Z,100.00
2023-04-19T07:06:41.145Z,100.00
2023-04-19T07:09:10.576Z,100.00
2023-04-19T07:11:38.875Z,100.00
2023-04-19T07:14:07.505Z,100.00
2023-04-19T07:16:35.933Z,100.00
2023-04-19T07:19:04.025Z,100.00
2023-04-19T07:21:33.865Z,100.00
2023-04-19T07:24:01.995Z,100.00
2023-04-19T07:26:31.563Z,100.00
2023-04-19T07:29:00.012Z,100.00
2023-04-19T07:31:28.729Z,100.00
2023-04-19T07:33:57.208Z,100.00
2023-04-19T07:36:25.389Z,100.00
2023-04-19T07:38:53.623Z,100.00
2023-04-19T07:41:22.066Z,100.00
2023-04-19T07:43:51.486Z,98.58
2023-04-19T07:46:19.933Z,100.00
2023-04-19T07:48:48.403Z,100.00
2023-04-19T07:51:17.848Z,100.00
2023-04-19T07:53:47.904Z,100.00
2023-04-19T07:56:17.004Z,99.36
2023-04-19T07:58:46.715Z,100.00
2023-04-19T08:01:20.437Z,99.37
2023-04-19T08:03:48.670Z,98.60
2023-04-19T08:06:17.954Z,94.01
2023-04-19T08:08:46.875Z,95.80
2023-04-19T08:11:15.618Z,94.64
2023-04-19T08:13:55.150Z,88.12
2023-04-19T08:17:14.183Z,92.38
2023-04-19T08:19:21.610Z,92.48
2023-04-19T08:21:49.594Z,95.31
2023-04-19T08:24:17.702Z,90.54
2023-04-19T08:26:53.671Z,95.70
2023-04-19T08:29:22.206Z,88.53
2023-04-19T08:31:51.930Z,94.08
2023-04-19T08:34:20.017Z,91.01
2023-04-19T08:37:00.203Z,93.53
2023-04-19T08:39:33.466Z,95.01
2023-04-19T08:42:09.260Z,91.44
2023-04-19T08:44:59.060Z,89.33
2023-04-19T08:47:34.500Z,90.28
2023-04-19T08:52:44.741Z,85.59
2023-04-19T08:55:23.087Z,78.99
2023-04-19T08:57:51.631Z,86.78
2023-04-19T09:00:21.006Z,86.43
2023-04-19T09:02:51.798Z,82.40
2023-04-19T09:05:20.521Z,80.02
2023-04-19T09:07:49.251Z,81.67
2023-04-19T09:10:19.075Z,70.88
2023-04-19T09:13:02.367Z,74.06
2023-04-19T09:15:39.528Z,70.56
2023-04-19T09:18:10.957Z,70.33
2023-04-19T09:20:39.988Z,73.62
2023-04-19T09:23:09.633Z,72.54
2023-04-19T09:25:52.919Z,74.05
2023-04-19T09:28:26.404Z,74.71
2023-04-19T09:31:06.711Z,76.28
2023-04-19T09:33:40.460Z,71.43
2023-04-19T09:36:09.892Z,70.87
2023-04-19T09:38:48.525Z,72.35
2023-04-19T09:41:17.562Z,73.91
2023-04-19T09:44:05.444Z,73.63
2023-04-19T09:46:36.368Z,74.27
2023-04-19T09:49:36.813Z,72.88
2023-04-19T09:52:15.184Z,74.05
2023-04-19T09:54:43.775Z,71.40
2023-04-19T09:57:12.349Z,71.63
2023-04-19T09:59:41.150Z,72.41
2023-04-19T10:02:13.334Z,71.95
2023-04-19T10:07:29.973Z,75.37
2023-04-19T10:15:07.424Z,74.34
2023-04-19T10:17:36.584Z,71.48
2023-04-19T10:20:12.242Z,72.18
2023-04-19T10:22:42.193Z,76.94
2023-04-19T10:25:13.248Z,80.28
2023-04-19T10:27:48.897Z,79.63
2023-04-19T10:30:21.814Z,73.78
2023-04-19T10:32:56.372Z,75.96
2023-04-19T10:35:29.494Z,78.12
2023-04-19T10:38:08.241Z,79.23
2023-04-19T10:41:01.917Z,74.96
2023-04-19T10:43:31.885Z,75.41
2023-04-19T10:46:08.096Z,74.11
2023-04-19T10:48:44.246Z,76.27
2023-04-19T10:51:19.635Z,78.34
2023-04-19T10:53:50.393Z,75.45
2023-04-19T10:56:19.972Z,79.42
2023-04-19T10:59:13.701Z,76.49
2023-04-19T11:01:43.484Z,74.40
2023-04-19T11:04:13.048Z,75.18
2023-04-19T11:07:01.694Z,73.84
2023-04-19T11:09:32.723Z,75.16
2023-04-19T11:12:02.836Z,76.06
2023-04-19T11:14:34.397Z,78.99
2023-04-19T11:17:04.090Z,78.02
2023-04-19T11:19:32.626Z,79.73
2023-04-19T11:22:02.420Z,80.34
2023-04-19T11:24:30.757Z,81.45
2023-04-19T11:26:59.334Z,83.58
2023-04-19T11:29:27.701Z,85.26
2023-04-19T11:31:56.383Z,85.76
2023-04-19T11:34:25.390Z,87.38
2023-04-19T11:36:53.988Z,85.81
2023-04-19T11:39:24.081Z,84.40
2023-04-19T11:41:52.169Z,86.31
2023-04-19T11:44:21.697Z,74.67
2023-04-19T11:47:03.097Z,76.17
2023-04-19T11:49:32.794Z,83.66
2023-04-19T11:52:05.634Z,76.76
2023-04-19T11:54:35.899Z,77.88
2023-04-19T11:57:05.613Z,75.20
2023-04-19T11:59:34.883Z,74.36
2023-04-19T12:02:07.764Z,71.23
2023-04-19T12:04:36.707Z,69.55
2023-04-19T12:07:06.921Z,70.76
2023-04-19T12:09:39.155Z,73.20
2023-04-19T12:12:08.084Z,65.81
2023-04-19T12:14:36.308Z,70.60
2023-04-19T12:17:12.364Z,68.31
2023-04-19T12:19:45.824Z,68.65
2023-04-19T12:22:16.362Z,67.86
2023-04-19T12:24:46.364Z,66.31
2023-04-19T12:27:19.671Z,70.79
2023-04-19T12:29:48.174Z,64.18
2023-04-19T12:32:16.465Z,67.63
2023-04-19T12:34:44.936Z,74.55
2023-04-19T12:37:13.067Z,64.22
2023-04-19T12:39:41.268Z,64.54
2023-04-19T12:42:11.034Z,62.73
2023-04-19T12:44:39.576Z,61.77
2023-04-19T12:47:07.761Z,67.84
2023-04-19T12:49:36.160Z,68.84
2023-04-19T12:52:04.674Z,66.23
2023-04-19T12:54:32.821Z,63.30
2023-04-19T12:57:03.352Z,63.12
2023-04-19T12:59:33.168Z,64.56
2023-04-19T13:02:01.898Z,64.79
2023-04-19T13:04:30.484Z,68.92
2023-04-19T13:06:58.866Z,60.99
2023-04-19T13:09:29.281Z,67.40
2023-04-19T13:11:58.225Z,67.89
2023-04-19T13:14:27.450Z,72.75
2023-04-19T13:16:57.543Z,73.02
2023-04-19T13:19:25.976Z,70.56
2023-04-19T13:21:54.259Z,70.72
2023-04-19T13:24:22.281Z,63.76
2023-04-19T13:26:50.824Z,62.87
2023-04-19T13:29:19.358Z,67.60
2023-04-19T13:31:49.617Z,66.70
2023-04-19T13:34:19.429Z,66.43
2023-04-19T13:36:48.084Z,67.91
2023-04-19T13:39:16.304Z,62.62
2023-04-19T13:41:44.441Z,64.50
2023-04-19T13:44:12.541Z,67.59
2023-04-19T13:46:41.185Z,68.44
2023-04-19T13:49:09.824Z,65.09
2023-04-19T13:51:49.600Z,69.25
2023-04-19T13:54:19.762Z,65.01
2023-04-19T13:56:51.418Z,63.93
2023-04-19T13:59:21.006Z,63.59
2023-04-19T14:01:49.624Z,63.54
2023-04-19T14:04:18.375Z,66.55
2023-04-19T14:06:48.508Z,63.86
2023-04-19T14:09:17.124Z,66.52
2023-04-19T14:11:45.247Z,69.74
2023-04-19T14:14:13.318Z,63.93
2023-04-19T14:16:41.886Z,62.85
2023-04-19T14:19:10.441Z,66.11
2023-04-19T14:21:38.896Z,64.01
2023-04-19T14:24:09.414Z,71.34
2023-04-19T14:26:37.949Z,68.27
2023-04-19T14:29:06.687Z,65.76
2023-04-19T14:31:35.146Z,72.60
2023-04-19T14:34:03.514Z,72.46
2023-04-19T14:36:31.587Z,69.03
2023-04-19T14:38:59.861Z,70.31
2023-04-19T14:41:29.303Z,72.17
2023-04-19T14:43:57.702Z,69.29
2023-04-19T14:46:25.992Z,71.27
2023-04-19T14:48:53.969Z,75.52
2023-04-19T14:51:22.202Z,71.85
2023-04-19T14:53:50.227Z,79.33
2023-04-19T14:56:18.370Z,80.35
2023-04-19T14:58:47.971Z,76.11
2023-04-19T15:01:16.489Z,75.15
2023-04-19T15:03:44.821Z,72.30
2023-04-19T15:06:13.558Z,77.59
2023-04-19T15:08:43.254Z,73.09
2023-04-19T15:11:11.335Z,76.31
2023-04-19T15:13:39.494Z,76.21
2023-04-19T15:16:10.600Z,75.45
2023-04-19T15:18:38.986Z,72.79
2023-04-19T15:21:07.305Z,79.57
2023-04-19T15:23:35.476Z,81.62
2023-04-19T15:26:04.098Z,81.85
2023-04-19T15:28:35.928Z,80.37
2023-04-19T15:31:05.958Z,78.74
2023-04-19T15:33:37.675Z,79.55
2023-04-19T15:36:06.846Z,82.93
2023-04-19T15:38:35.167Z,82.87
2023-04-19T15:41:03.343Z,82.72
2023-04-19T15:43:31.866Z,83.01
2023-04-19T15:46:00.493Z,81.47
2023-04-19T15:48:29.914Z,80.83
2023-04-19T15:50:59.596Z,81.08
2023-04-19T15:53:27.835Z,81.58
2023-04-19T15:55:56.324Z,80.65
2023-04-19T15:58:25.284Z,79.88
2023-04-19T16:00:53.649Z,81.15
2023-04-19T16:03:21.864Z,81.36
2023-04-19T16:05:51.718Z,83.55
2023-04-19T16:08:21.421Z,81.50
2023-04-19T16:10:51.037Z,80.82
2023-04-19T16:13:19.090Z,85.68
2023-04-19T16:15:47.495Z,88.41
2023-04-19T16:18:15.581Z,91.06
2023-04-19T16:20:44.058Z,87.12
2023-04-19T16:23:12.168Z,88.14
2023-04-19T16:25:42.742Z,87.74
2023-04-19T16:28:10.659Z,86.29
2023-04-19T16:30:39.079Z,88.57
2023-04-19T16:33:07.841Z,94.61
2023-04-19T16:35:36.245Z,97.01
2023-04-19T16:38:04.492Z,97.99
2023-04-19T16:40:32.517Z,100.00
2023-04-19T16:43:01.855Z,100.00
2023-04-19T16:45:30.023Z,100.00
2023-04-19T16:47:58.172Z,100.00
2023-04-19T16:50:26.928Z,100.00
2023-04-19T16:52:55.278Z,100.00
2023-04-19T16:55:23.807Z,99.62
2023-04-19T16:57:53.827Z,100.00
2023-04-19T17:00:23.860Z,100.00
2023-04-19T17:02:52.146Z,100.00
2023-04-19T17:05:20.726Z,100.00
2023-04-19T17:07:48.900Z,100.00
2023-04-19T17:10:17.380Z,100.00
2023-04-19T17:12:45.385Z,100.00
2023-04-19T17:15:13.465Z,100.00
2023-04-19T17:17:42.922Z,100.00
2023-04-19T17:20:12.060Z,100.00
2023-04-19T17:22:39.989Z,100.00
2023-04-19T17:25:08.537Z,100.00
2023-04-19T17:27:36.502Z,100.00
2023-04-19T17:30:07.204Z,100.00
2023-04-19T17:32:35.470Z,100.00
2023-04-19T17:35:05.315Z,100.00
2023-04-19T17:37:33.465Z,100.00
2023-04-19T17:40:01.811Z,100.00
2023-04-19T17:42:29.711Z,100.00
2023-04-19T17:44:58.543Z,100.00
2023-04-19T17:47:26.954Z,100.00
2023-04-19T17:50:05.343Z,100.00
2023-04-19T17:52:35.120Z,100.00
2023-04-19T17:55:04.803Z,100.00
2023-04-19T17:57:34.143Z,100.00
2023-04-19T18:00:06.877Z,100.00
2023-04-19T18:02:35.432Z,100.00
2023-04-19T18:05:03.851Z,100.00
2023-04-19T18:07:31.945Z,100.00
2023-04-19T18:10:01.274Z,100.00
2023-04-19T18:12:29.466Z,100.00
2023-04-19T18:14:57.383Z,100.00
2023-04-19T18:17:25.384Z,100.00
2023-04-19T18:19:53.354Z,100.00
2023-04-19T18:22:21.252Z,100.00
2023-04-19T18:24:51.246Z,100.00
2023-04-19T18:27:20.761Z,100.00
2023-04-19T18:29:51.963Z,100.00
2023-04-19T18:32:21.829Z,100.00
2023-04-19T18:34:49.975Z,100.00
2023-04-19T18:37:18.949Z,100.00
2023-04-19T18:39:47.184Z,100.00
2023-04-19T18:42:15.108Z,100.00
2023-04-19T18:44:53.923Z,100.00
2023-04-19T18:47:22.533Z,100.00
2023-04-19T18:50:03.602Z,100.00
2023-04-19T18:52:32.903Z,100.00
2023-04-19T18:55:00.865Z,100.00
2023-04-19T18:57:30.507Z,100.00
2023-04-19T19:00:05.053Z,100.00
2023-04-19T19:02:34.228Z,100.00
2023-04-19T19:05:02.774Z,100.00
2023-04-19T19:10:06.361Z,100.00
2023-04-19T19:12:42.947Z,100.00
2023-04-19T19:15:12.713Z,100.00
2023-04-19T19:17:40.982Z,100.00
2023-04-19T19:20:10.701Z,100.00
2023-04-19T19:22:38.790Z,100.00
2023-04-19T19:25:07.488Z,100.00
2023-04-19T19:27:35.717Z,100.00
2023-04-19T19:30:03.894Z,100.00
2023-04-19T19:32:33.289Z,100.00
2023-04-19T19:35:05.359Z,100.00
2023-04-19T19:37:35.904Z,100.00
2023-04-19T19:40:06.437Z,100.00
2023-04-19T19:42:34.851Z,100.00
2023-04-19T19:45:03.774Z,100.00
2023-04-19T19:47:35.523Z,100.00
2023-04-19T19:50:50.637Z,100.00
2023-04-19T19:52:52.553Z,100.00
2023-04-19T19:55:20.601Z,100.00
2023-04-19T19:58:23.869Z,100.00
2023-04-19T20:00:46.307Z,100.00
2023-04-19T20:03:28.326Z,100.00
2023-04-19T20:06:35.264Z,100.00
2023-04-19T20:08:52.854Z,100.00
2023-04-19T20:11:20.994Z,100.00
2023-04-19T20:13:48.945Z,100.00
2023-04-19T20:16:18.804Z,100.00
2023-04-19T20:18:49.306Z,100.00
2023-04-19T20:21:19.604Z,100.00
2023-04-19T20:23:47.594Z,100.00
2023-04-19T20:26:15.542Z,100.00
2023-04-19T20:28:43.461Z,100.00
2023-04-19T20:31:11.488Z,100.00
2023-04-19T20:33:39.395Z,100.00
2023-04-19T20:36:09.773Z,100.00
2023-04-19T20:38:37.845Z,100.00
2023-04-19T20:41:06.015Z,100.00
2023-04-19T20:43:33.965Z,100.00
2023-04-19T20:46:01.959Z,100.00
2023-04-19T20:48:30.182Z,100.00
2023-04-19T20:50:58.080Z,100.00
2023-04-19T20:53:27.504Z,100.00
2023-04-19T20:55:55.457Z,100.00
2023-04-19T20:58:23.364Z,100.00
2023-04-19T21:00:51.348Z,100.00
2023-04-19T21:03:19.414Z,100.00
2023-04-19T21:05:47.421Z,100.00
2023-04-19T21:08:16.189Z,100.00
2023-04-19T21:10:45.501Z,100.00
2023-04-19T21:13:13.382Z,100.00
2023-04-19T21:15:41.377Z,100.00
2023-04-19T21:18:09.364Z,100.00
2023-04-19T21:20:37.867Z,100.00
2023-04-19T21:23:06.002Z,100.00
2023-04-19T21:25:34.304Z,100.00
2023-04-19T21:28:03.590Z,100.00
2023-04-19T21:30:31.655Z,100.00
2023-04-19T21:32:59.548Z,100.00
2023-04-19T21:35:27.535Z,100.00
2023-04-19T21:37:55.467Z,100.00
2023-04-19T21:40:23.490Z,100.00
2023-04-19T21:42:51.422Z,100.00
2023-04-19T21:45:20.820Z,100.00
2023-04-19T21:47:48.836Z,100.00
2023-04-19T21:50:16.755Z,100.00
2023-04-19T21:52:44.685Z,100.00
2023-04-19T21:55:12.620Z,100.00
2023-04-19T21:57:40.594Z,100.00
2023-04-19T22:00:10.358Z,100.00
2023-04-19T22:02:39.784Z,100.00
2023-04-19T22:05:08.369Z,100.00
2023-04-19T22:07:38.234Z,100.00
2023-04-19T22:10:07.494Z,100.00
2023-04-19T22:12:38.775Z,100.00
2023-04-19T22:15:11.293Z,100.00
2023-04-19T22:17:40.669Z,100.00
2023-04-19T22:20:12.813Z,100.00
2023-04-19T22:22:40.769Z,100.00
2023-04-19T22:25:09.502Z,100.00
2023-04-19T22:27:37.497Z,100.00
2023-04-19T22:30:06.565Z,100.00
2023-04-19T22:32:34.615Z,100.00
2023-04-19T22:35:04.224Z,100.00
2023-04-19T22:37:32.130Z,100.00
2023-04-19T22:40:00.299Z,100.00
2023-04-19T22:42:28.298Z,100.00
2023-04-19T22:44:56.236Z,100.00
2023-04-19T22:47:24.192Z,100.00
2023-04-19T22:49:52.116Z,100.00
2023-04-19T22:52:21.426Z,100.00
2023-04-19T22:54:49.340Z,100.00
2023-04-19T22:57:17.248Z,100.00
2023-04-19T22:59:45.163Z,100.00
2023-04-19T23:02:13.199Z,100.00
2023-04-19T23:04:41.623Z,100.00
2023-04-19T23:07:09.575Z,100.00
2023-04-19T23:09:39.515Z,100.00
2023-04-19T23:12:08.428Z,100.00
2023-04-19T23:14:38.598Z,100.00
2023-04-19T23:17:06.660Z,100.00
2023-04-19T23:19:34.621Z,100.00
2023-04-19T23:22:02.526Z,100.00
2023-04-19T23:24:30.451Z,100.00
2023-04-19T23:26:59.743Z,100.00
2023-04-19T23:29:27.679Z,100.00
2023-04-19T23:31:55.745Z,100.00
2023-04-19T23:34:23.651Z,100.00
2023-04-19T23:36:51.588Z,100.00
2023-04-19T23:39:20.188Z,100.00
2023-04-19T23:41:48.238Z,100.00
2023-04-19T23:44:17.581Z,100.00
2023-04-19T23:46:45.555Z,100.00
2023-04-19T23:49:13.602Z,100.00
2023-04-19T23:51:41.605Z,100.00
2023-04-19T23:54:09.530Z,100.00
2023-04-19T23:56:37.552Z,100.00
2023-04-19T23:59:05.537Z,100.00
